createdAt,value
2024-05-09T00:00:10.445Z,16.08
2024-05-09T00:03:28.924Z,16.04
2024-05-09T00:06:46.868Z,16.07
2024-05-09T00:10:05.564Z,16.03
2024-05-09T00:13:23.879Z,15.96
2024-05-09T00:16:41.379Z,15.92
2024-05-09T00:19:58.878Z,15.84
2024-05-09T00:23:16.771Z,15.86
2024-05-09T00:26:34.421Z,15.86
2024-05-09T00:29:51.920Z,15.77
2024-05-09T00:33:10.805Z,15.72
2024-05-09T00:36:28.759Z,15.67
2024-05-09T00:39:46.320Z,15.57
2024-05-09T00:43:03.937Z,15.61
2024-05-09T00:46:21.591Z,15.61
2024-05-09T00:49:39.566Z,15.62
2024-05-09T00:52:57.536Z,15.62
2024-05-09T00:56:17.785Z,15.59
2024-05-09T00:59:35.565Z,15.59
2024-05-09T01:02:53.473Z,15.59
2024-05-09T01:06:11.938Z,15.60
2024-05-09T01:09:29.517Z,15.52
2024-05-09T01:12:47.317Z,15.41
2024-05-09T01:16:05.078Z,15.40
2024-05-09T01:19:29.225Z,15.34
2024-05-09T01:22:49.319Z,15.30
2024-05-09T01:26:06.898Z,15.27
2024-05-09T01:29:26.017Z,15.21
2024-05-09T01:32:43.763Z,15.03
2024-05-09T01:36:01.850Z,14.78
2024-05-09T01:39:19.497Z,14.71
2024-05-09T01:42:37.260Z,14.75
2024-05-09T01:45:54.872Z,14.72
2024-05-09T01:49:12.614Z,14.78
2024-05-09T01:52:30.391Z,14.72
2024-05-09T01:55:48.213Z,14.60
2024-05-09T01:59:05.682Z,14.60
2024-05-09T02:02:25.039Z,14.51
2024-05-09T02:05:42.831Z,14.55
2024-05-09T02:09:00.749Z,14.44
2024-05-09T02:12:18.538Z,14.30
2024-05-09T02:15:36.263Z,14.32
2024-05-09T02:18:53.914Z,14.25
2024-05-09T02:22:11.538Z,14.08
2024-05-09T02:25:31.604Z,14.12
2024-05-09T02:28:49.328Z,14.06
2024-05-09T02:32:07.184Z,13.99
2024-05-09T02:35:24.583Z,14.00
2024-05-09T02:38:42.434Z,13.96
2024-05-09T02:41:59.917Z,13.89
2024-05-09T02:45:17.879Z,13.83
2024-05-09T02:48:35.602Z,13.91
2024-05-09T02:51:55.795Z,13.88
2024-05-09T02:55:13.512Z,13.79
2024-05-09T02:58:31.154Z,13.67
2024-05-09T03:01:48.870Z,13.63
2024-05-09T03:05:06.582Z,13.58
2024-05-09T03:08:24.436Z,13.53
2024-05-09T03:11:42.375Z,13.53
2024-05-09T03:15:01.766Z,13.56
2024-05-09T03:18:19.608Z,13.46
2024-05-09T03:21:36.943Z,13.41
2024-05-09T03:24:54.590Z,13.35
2024-05-09T03:28:13.209Z,13.30
2024-05-09T03:31:30.877Z,13.14
2024-05-09T03:34:50.173Z,13.15
2024-05-09T03:38:07.678Z,13.15
2024-05-09T03:41:26.817Z,13.24
2024-05-09T03:44:44.347Z,13.29
2024-05-09T03:48:01.908Z,13.26
2024-05-09T03:51:19.816Z,13.28
2024-05-09T03:54:37.693Z,13.31
2024-05-09T03:57:55.283Z,13.37
2024-05-09T04:01:13.169Z,13.43
2024-05-09T04:04:30.878Z,13.49
2024-05-09T04:07:50.637Z,13.51
2024-05-09T04:11:08.580Z,13.58
2024-05-09T04:14:26.439Z,13.63
2024-05-09T04:17:45.350Z,13.75
2024-05-09T04:21:03.328Z,13.74
2024-05-09T04:24:21.043Z,13.81
2024-05-09T04:27:38.612Z,13.93
2024-05-09T04:30:56.131Z,14.05
2024-05-09T04:34:14.407Z,14.11
2024-05-09T04:37:32.010Z,14.19
2024-05-09T04:40:49.211Z,14.14
2024-05-09T04:44:06.819Z,14.10
2024-05-09T04:47:24.474Z,14.26
2024-05-09T04:50:42.344Z,14.48
2024-05-09T04:54:00.194Z,14.49
2024-05-09T04:57:17.751Z,14.60
2024-05-09T05:00:37.509Z,14.81
2024-05-09T05:03:56.246Z,14.89
2024-05-09T05:07:14.326Z,14.93
2024-05-09T05:10:36.119Z,15.03
2024-05-09T05:13:52.007Z,15.12
2024-05-09T05:17:11.411Z,15.16
2024-05-09T05:20:33.562Z,15.35
2024-05-09T05:23:48.736Z,15.57
2024-05-09T05:27:06.507Z,16.01
2024-05-09T05:30:29.092Z,16.34
2024-05-09T05:33:43.271Z,16.56
2024-05-09T05:37:01.020Z,17.00
2024-05-09T05:40:28.149Z,17.60
2024-05-09T05:43:38.928Z,17.67
2024-05-09T05:46:56.583Z,17.69
2024-05-09T05:59:15.611Z,17.91
2024-05-09T06:02:33.426Z,17.56
2024-05-09T06:05:51.551Z,18.04
2024-05-09T06:09:09.179Z,18.36
2024-05-09T06:12:26.525Z,18.30
2024-05-09T06:15:44.459Z,18.62
2024-05-09T06:19:02.078Z,18.69
2024-05-09T06:22:19.475Z,18.86
2024-05-09T06:25:36.800Z,18.94
2024-05-09T06:28:54.560Z,19.14
2024-05-09T15:12:10.563Z,25.80
2024-05-09T15:15:28.474Z,25.69
2024-05-09T15:18:46.313Z,25.47
2024-05-09T15:22:04.038Z,25.40
2024-05-09T15:25:21.696Z,25.28
2024-05-09T15:28:39.050Z,25.27
2024-05-09T15:31:56.387Z,25.19
2024-05-09T15:35:15.195Z,25.20
2024-05-09T15:38:32.567Z,25.27
2024-05-09T15:41:50.071Z,25.39
2024-05-09T15:45:08.779Z,25.40
2024-05-09T15:48:26.798Z,25.38
2024-05-09T15:51:44.137Z,25.28
2024-05-09T15:55:01.812Z,25.37
2024-05-09T15:58:22.324Z,25.53
2024-05-09T16:01:39.761Z,25.59
2024-05-09T16:04:58.267Z,25.38
2024-05-09T16:08:18.466Z,25.37
2024-05-09T16:11:36.171Z,25.29
2024-05-09T16:14:54.250Z,25.05
2024-05-09T16:18:12.972Z,25.26
2024-05-09T16:21:30.870Z,25.13
2024-05-09T16:24:48.650Z,24.99
2024-05-09T16:28:09.879Z,24.85
2024-05-09T16:31:26.038Z,24.76
2024-05-09T16:34:43.615Z,24.69
2024-05-09T16:38:01.691Z,24.48
2024-05-09T16:41:20.782Z,24.38
2024-05-09T16:44:38.501Z,24.31
2024-05-09T16:47:56.515Z,24.27
2024-05-09T16:51:14.603Z,24.23
2024-05-09T16:54:32.579Z,24.13
2024-05-09T16:57:50.472Z,24.09
2024-05-09T17:01:08.352Z,24.06
2024-05-09T17:04:26.192Z,23.94
2024-05-09T17:07:44.213Z,23.85
2024-05-09T17:11:02.289Z,23.84
2024-05-09T17:14:20.485Z,23.77
2024-05-09T17:17:38.450Z,23.61
2024-05-09T17:20:56.989Z,23.53
2024-05-09T17:24:15.408Z,23.42
2024-05-09T17:27:33.349Z,23.27
2024-05-09T17:30:51.290Z,23.21
2024-05-09T17:34:09.137Z,23.17
2024-05-09T17:37:27.875Z,23.07
2024-05-09T17:40:45.784Z,23.05
2024-05-09T17:44:03.346Z,22.92
2024-05-09T17:47:22.709Z,22.74
2024-05-09T17:50:41.404Z,22.58
2024-05-09T17:53:59.964Z,22.45
2024-05-09T17:57:19.252Z,22.37
2024-05-09T18:00:40.405Z,22.40
2024-05-09T18:03:59.797Z,22.19
2024-05-09T18:07:17.741Z,22.29
2024-05-09T18:10:38.742Z,22.42
2024-05-09T18:13:56.345Z,22.46
2024-05-09T18:17:14.778Z,22.36
2024-05-09T18:20:41.343Z,22.20
2024-05-09T18:23:56.738Z,22.05
2024-05-09T18:27:16.079Z,22.05
2024-05-09T18:30:36.156Z,21.94
2024-05-09T18:33:54.441Z,21.87
2024-05-09T18:37:14.198Z,21.83
2024-05-09T18:40:35.974Z,21.67
2024-05-09T18:43:54.278Z,21.56
2024-05-09T18:47:13.732Z,21.48
2024-05-09T18:50:37.252Z,21.36
2024-05-09T18:53:53.442Z,21.21
2024-05-09T18:57:11.698Z,21.12
2024-05-09T19:00:35.357Z,21.05
2024-05-09T19:03:50.001Z,20.87
2024-05-09T19:07:08.244Z,20.96
2024-05-09T19:10:32.273Z,20.95
2024-05-09T19:13:46.212Z,20.87
2024-05-09T19:17:03.968Z,20.81
2024-05-09T19:20:28.620Z,20.69
2024-05-09T19:23:47.186Z,20.60
2024-05-09T19:27:03.009Z,20.55
2024-05-09T19:30:29.773Z,20.38
2024-05-09T19:33:41.988Z,20.18
2024-05-09T19:37:00.949Z,20.02
2024-05-09T19:40:28.627Z,19.96
2024-05-09T19:43:43.282Z,19.57
2024-05-09T19:47:01.324Z,19.48
2024-05-09T19:50:30.217Z,19.14
2024-05-09T19:53:41.251Z,19.13
2024-05-09T19:56:59.167Z,19.12
2024-05-09T20:00:26.005Z,19.03
2024-05-09T20:03:39.442Z,19.01
2024-05-09T20:06:58.691Z,19.04
2024-05-09T20:10:23.692Z,18.90
2024-05-09T20:13:36.919Z,18.85
2024-05-09T20:16:55.627Z,18.81
2024-05-09T20:20:27.355Z,18.70
2024-05-09T20:23:36.004Z,18.60
2024-05-09T20:26:54.223Z,18.62
2024-05-09T20:30:24.733Z,18.50
2024-05-09T20:33:39.110Z,18.43
2024-05-09T20:36:59.114Z,18.32
2024-05-09T20:40:28.773Z,18.38
2024-05-09T20:43:45.134Z,18.27
2024-05-09T20:47:13.165Z,18.30
2024-05-09T20:50:39.811Z,18.13
2024-05-09T20:53:57.128Z,18.08
2024-05-09T20:57:20.213Z,17.98
2024-05-09T21:00:42.553Z,17.96
2024-05-09T21:04:00.591Z,17.91
2024-05-09T21:07:18.800Z,17.83
2024-05-09T21:10:37.492Z,17.74
2024-05-09T21:13:59.343Z,17.72
2024-05-09T21:17:17.392Z,17.71
2024-05-09T21:20:35.594Z,17.47
2024-05-09T21:23:53.417Z,17.49
2024-05-09T21:27:11.835Z,17.33
2024-05-09T21:30:41.247Z,17.16
2024-05-09T21:33:56.362Z,17.14
2024-05-09T21:37:17.687Z,17.03
2024-05-09T21:40:41.387Z,16.97
2024-05-09T21:44:08.162Z,16.89
2024-05-09T21:47:27.602Z,16.97
2024-05-09T21:50:45.640Z,16.86
2024-05-09T21:54:03.732Z,16.76
2024-05-09T21:57:25.501Z,16.69
2024-05-09T22:00:46.381Z,16.67
2024-05-09T22:04:07.237Z,16.61
2024-05-09T22:07:25.772Z,16.55
2024-05-09T22:10:43.647Z,16.41
2024-05-09T22:14:01.465Z,16.41
2024-05-09T22:17:19.156Z,16.53
2024-05-09T22:20:39.284Z,16.50
2024-05-09T22:23:58.536Z,16.24
2024-05-09T22:27:16.482Z,16.33
2024-05-09T22:30:37.960Z,16.41
2024-05-09T22:33:54.600Z,16.39
2024-05-09T22:37:12.490Z,16.28
2024-05-09T22:40:39.129Z,16.30
2024-05-09T22:43:50.136Z,16.24
2024-05-09T22:47:07.657Z,16.17
2024-05-09T22:50:27.025Z,16.13
2024-05-09T22:53:44.291Z,15.99
2024-05-09T22:57:01.941Z,15.97
2024-05-09T23:00:29.067Z,15.87
2024-05-09T23:03:42.252Z,15.76
2024-05-09T23:07:01.015Z,15.71
2024-05-09T23:10:27.421Z,15.73
2024-05-09T23:13:38.755Z,15.75
2024-05-09T23:16:56.205Z,15.69
2024-05-09T23:20:22.061Z,15.64
2024-05-09T23:23:36.124Z,15.53
2024-05-09T23:26:53.781Z,15.54
2024-05-09T23:30:18.328Z,15.19
2024-05-09T23:33:32.724Z,14.98
2024-05-09T23:36:50.558Z,14.89
2024-05-09T23:40:09.708Z,14.90
2024-05-09T23:43:27.792Z,14.92
2024-05-09T23:46:45.523Z,14.98
2024-05-09T23:50:05.171Z,14.84
2024-05-09T23:53:23.096Z,14.87
2024-05-09T23:56:40.698Z,14.89
2024-05-09T23:59:58.986Z,14.79
